createdAt,value
2018-08-25T00:00:41.494Z,17.50
2018-08-25T00:01:41.460Z,15.00
2018-08-25T00:02:41.455Z,16.00
2018-08-25T00:03:41.372Z,17.10
2018-08-25T00:04:42.964Z,17.90
2018-08-25T00:05:41.295Z,16.30
2018-08-25T00:06:41.265Z,18.70
2018-08-25T00:07:41.252Z,17.50
2018-08-25T00:08:41.276Z,16.50
2018-08-25T00:09:41.218Z,16.80
2018-08-25T00:10:41.129Z,16.10
2018-08-25T00:11:41.084Z,16.60
2018-08-25T00:12:41.066Z,16.70
2018-08-25T00:13:41.078Z,15.80
2018-08-25T00:14:41.000Z,17.10
2018-08-25T00:15:40.974Z,16.80
2018-08-25T00:16:40.906Z,17.70
2018-08-25T00:17:40.891Z,18.00
2018-08-25T00:18:40.892Z,17.70
2018-08-25T00:19:40.799Z,17.50
2018-08-25T00:20:40.815Z,15.50
2018-08-25T00:21:41.101Z,13.00
2018-08-25T00:22:40.757Z,13.20
2018-08-25T00:23:40.654Z,15.40
2018-08-25T00:24:40.639Z,15.60
2018-08-25T00:25:40.593Z,14.30
2018-08-25T00:26:40.567Z,14.30
2018-08-25T00:27:40.536Z,14.10
2018-08-25T00:28:40.502Z,11.40
2018-08-25T00:29:40.471Z,12.30
2018-08-25T00:30:40.413Z,12.80
2018-08-25T00:31:40.412Z,14.20
2018-08-25T00:32:40.359Z,13.60
2018-08-25T00:33:40.331Z,14.30
2018-08-25T00:34:40.288Z,15.20
2018-08-25T00:35:40.242Z,14.20
2018-08-25T00:36:40.234Z,12.50
2018-08-25T00:37:40.187Z,11.40
2018-08-25T00:38:40.142Z,11.00
2018-08-25T00:39:40.098Z,11.00
2018-08-25T00:40:40.077Z,11.80
2018-08-25T00:41:40.033Z,12.00
2018-08-25T00:42:40.014Z,13.90
2018-08-25T00:43:39.992Z,13.90
2018-08-25T00:44:39.938Z,14.70
2018-08-25T00:45:39.884Z,14.10
2018-08-25T00:46:39.871Z,14.00
2018-08-25T00:47:39.828Z,14.30
2018-08-25T00:48:39.835Z,14.20
2018-08-25T00:49:39.762Z,13.90
2018-08-25T00:50:39.724Z,13.70
2018-08-25T00:51:39.691Z,14.30
2018-08-25T00:52:39.651Z,13.10
2018-08-25T00:53:39.635Z,13.00
2018-08-25T00:54:39.578Z,13.40
2018-08-25T00:55:39.541Z,13.20
2018-08-25T00:56:39.516Z,13.80
2018-08-25T00:57:39.580Z,14.10
2018-08-25T00:58:39.435Z,14.90
2018-08-25T00:59:39.400Z,15.10
2018-08-25T01:00:39.379Z,15.00
2018-08-25T01:01:39.328Z,14.80
2018-08-25T01:02:39.370Z,15.20
2018-08-25T01:03:39.254Z,15.40
2018-08-25T01:04:39.217Z,15.50
2018-08-25T01:05:39.203Z,14.70
2018-08-25T01:06:39.152Z,15.60
2018-08-25T01:07:39.142Z,15.10
2018-08-25T01:08:39.089Z,14.40
2018-08-25T01:09:39.054Z,14.50
2018-08-25T01:10:39.030Z,14.60
2018-08-25T01:11:38.981Z,14.20
2018-08-25T01:12:38.963Z,14.00
2018-08-25T01:13:38.914Z,13.80
2018-08-25T01:14:38.871Z,14.10
2018-08-25T01:15:38.846Z,14.60
2018-08-25T01:16:38.800Z,15.00
2018-08-25T01:17:38.791Z,15.70
2018-08-25T01:18:38.724Z,15.00
2018-08-25T01:19:38.708Z,14.70
2018-08-25T01:20:38.669Z,14.30
2018-08-25T01:21:38.627Z,14.90
2018-08-25T01:22:38.596Z,14.30
2018-08-25T01:23:38.547Z,15.20
2018-08-25T01:24:38.560Z,14.30
2018-08-25T01:25:38.491Z,14.60
2018-08-25T01:26:38.460Z,15.20
2018-08-25T01:27:38.422Z,15.00
2018-08-25T01:28:38.378Z,14.50
2018-08-25T01:29:38.342Z,14.40
2018-08-25T01:30:38.297Z,15.70
2018-08-25T01:31:38.291Z,15.70
2018-08-25T01:32:38.243Z,15.80
2018-08-25T01:33:38.207Z,16.60
2018-08-25T01:34:38.186Z,16.90
2018-08-25T01:35:38.138Z,16.10
2018-08-25T01:36:38.092Z,16.30
2018-08-25T01:37:38.062Z,16.70
2018-08-25T01:38:38.027Z,16.70
2018-08-25T01:39:38.060Z,15.60
2018-08-25T01:40:37.947Z,15.50
2018-08-25T01:41:37.939Z,16.50
2018-08-25T01:42:37.884Z,16.50
2018-08-25T01:43:37.842Z,16.20
2018-08-25T01:44:37.825Z,16.60
2018-08-25T01:45:37.819Z,17.00
2018-08-25T01:46:37.765Z,16.30
2018-08-25T01:47:37.713Z,16.90
2018-08-25T01:48:37.668Z,17.10
2018-08-25T01:49:37.642Z,17.00
2018-08-25T01:50:37.617Z,17.10
2018-08-25T01:51:37.574Z,17.20
2018-08-25T01:52:37.524Z,17.80
2018-08-25T01:53:37.485Z,16.80
2018-08-25T01:54:37.466Z,17.40
2018-08-25T01:55:37.434Z,16.70
2018-08-25T01:56:37.403Z,16.00
2018-08-25T01:57:37.347Z,17.00
2018-08-25T01:58:37.333Z,16.40
2018-08-25T01:59:37.312Z,16.50
2018-08-25T02:00:37.245Z,17.00
2018-08-25T02:01:37.212Z,17.40
2018-08-25T02:02:37.234Z,16.60
2018-08-25T02:03:37.161Z,17.40
2018-08-25T02:04:37.118Z,17.00
2018-08-25T02:05:37.145Z,16.80
2018-08-25T02:06:37.048Z,17.00
2018-08-25T02:07:36.998Z,16.70
2018-08-25T02:08:36.971Z,17.10
2018-08-25T02:09:36.924Z,16.40
2018-08-25T02:10:36.887Z,15.60
2018-08-25T02:11:36.885Z,16.40
2018-08-25T02:12:36.829Z,16.30
2018-08-25T02:13:36.790Z,16.50
2018-08-25T02:14:36.745Z,15.40
2018-08-25T02:15:36.713Z,15.80
2018-08-25T02:16:36.687Z,16.60
2018-08-25T02:17:36.640Z,17.10
2018-08-25T02:18:36.651Z,17.70
2018-08-25T02:19:36.578Z,17.60
2018-08-25T02:20:36.565Z,17.10
2018-08-25T02:21:36.528Z,18.00
2018-08-25T02:22:36.479Z,17.90
2018-08-25T02:23:36.437Z,18.30
2018-08-25T02:24:36.399Z,17.70
2018-08-25T02:25:36.360Z,17.80
2018-08-25T02:26:36.319Z,16.80
2018-08-25T02:27:36.309Z,16.70
2018-08-25T02:28:36.274Z,17.40
2018-08-25T02:29:36.232Z,16.90
2018-08-25T02:30:36.189Z,17.30
2018-08-25T02:31:36.148Z,16.80
2018-08-25T02:32:36.103Z,17.10
2018-08-25T02:33:36.096Z,17.50
2018-08-25T02:34:36.066Z,17.70
2018-08-25T02:35:36.022Z,16.70
2018-08-25T02:36:35.979Z,17.00
2018-08-25T02:37:35.965Z,17.20
2018-08-25T02:38:35.948Z,17.60
2018-08-25T02:39:35.862Z,16.90
2018-08-25T02:40:35.837Z,16.40
2018-08-25T02:41:35.797Z,15.80
2018-08-25T02:42:35.752Z,15.90
2018-08-25T02:43:35.715Z,16.40
2018-08-25T02:44:35.678Z,16.20
2018-08-25T02:45:35.875Z,16.00
2018-08-25T02:46:35.683Z,17.10
2018-08-25T02:47:35.592Z,16.40
2018-08-25T02:48:35.541Z,16.30
2018-08-25T02:49:35.535Z,16.70
2018-08-25T02:50:35.474Z,15.70
2018-08-25T02:51:35.438Z,15.90
2018-08-25T02:52:35.410Z,17.90
2018-08-25T02:53:35.378Z,17.60
2018-08-25T02:54:35.331Z,17.10
2018-08-25T02:55:35.294Z,16.70
2018-08-25T02:56:35.275Z,18.10
2018-08-25T02:57:35.223Z,17.10
2018-08-25T02:58:35.180Z,16.50
2018-08-25T02:59:35.152Z,16.00
2018-08-25T03:00:35.104Z,16.60
2018-08-25T03:01:35.088Z,16.00
2018-08-25T03:02:35.061Z,16.50
2018-08-25T03:03:35.012Z,17.80
2018-08-25T03:04:34.985Z,19.10
2018-08-25T03:05:34.952Z,17.30
2018-08-25T03:06:34.920Z,16.20
2018-08-25T03:07:34.898Z,15.60
2018-08-25T03:08:34.870Z,16.60
2018-08-25T03:09:34.793Z,17.10
2018-08-25T03:10:34.768Z,18.10
2018-08-25T03:11:34.732Z,17.90
2018-08-25T03:12:34.739Z,20.30
2018-08-25T03:13:34.669Z,17.70
2018-08-25T03:14:34.632Z,19.20
2018-08-25T03:15:34.595Z,20.70
2018-08-25T03:16:34.596Z,18.90
2018-08-25T03:17:34.523Z,19.90
2018-08-25T03:18:34.503Z,19.40
2018-08-25T03:19:34.529Z,20.60
2018-08-25T03:20:34.405Z,20.10
2018-08-25T03:21:34.369Z,20.30
2018-08-25T03:22:34.414Z,19.50
2018-08-25T03:23:34.317Z,20.10
2018-08-25T03:24:34.246Z,24.00
2018-08-25T03:25:34.227Z,19.00
2018-08-25T03:26:34.173Z,20.10
2018-08-25T03:27:34.160Z,20.10
2018-08-25T03:28:34.117Z,19.50
2018-08-25T03:29:34.077Z,19.00
2018-08-25T03:30:34.036Z,19.20
2018-08-25T03:31:34.007Z,20.10
2018-08-25T03:32:33.977Z,20.20
2018-08-25T03:33:33.932Z,20.00
2018-08-25T03:34:33.908Z,19.90
2018-08-25T03:35:33.879Z,19.80
2018-08-25T03:36:33.852Z,20.10
2018-08-25T03:37:33.788Z,20.50
2018-08-25T03:38:33.745Z,18.90
2018-08-25T03:39:33.718Z,18.70
2018-08-25T03:40:33.683Z,18.70
2018-08-25T03:41:33.653Z,18.70
2018-08-25T03:42:33.616Z,18.50
2018-08-25T03:43:33.567Z,19.50
2018-08-25T03:44:33.568Z,18.90
2018-08-25T03:45:33.514Z,19.30
2018-08-25T03:46:33.486Z,19.80
2018-08-25T03:47:33.420Z,19.80
2018-08-25T03:48:33.392Z,19.60
2018-08-25T03:49:33.367Z,19.60
2018-08-25T03:50:33.321Z,19.30
2018-08-25T03:51:33.330Z,18.10
2018-08-25T03:52:33.247Z,19.80
2018-08-25T03:53:33.217Z,20.70
2018-08-25T03:54:33.216Z,18.80
2018-08-25T03:55:33.215Z,19.40
2018-08-25T03:56:33.123Z,19.60
2018-08-25T03:57:33.081Z,19.60
2018-08-25T03:58:33.035Z,20.30
2018-08-25T03:59:33.007Z,20.30
2018-08-25T04:00:33.007Z,21.00
2018-08-25T04:01:33.027Z,19.80
2018-08-25T04:02:32.953Z,19.90
2018-08-25T04:03:32.864Z,20.40
2018-08-25T04:04:32.817Z,20.50
2018-08-25T04:05:32.783Z,20.00
2018-08-25T04:06:32.733Z,19.40
2018-08-25T04:07:32.720Z,20.20
2018-08-25T04:08:32.694Z,18.30
2018-08-25T04:09:32.643Z,19.80
2018-08-25T04:10:32.616Z,19.70
2018-08-25T04:11:32.566Z,19.70
2018-08-25T04:12:32.533Z,19.00
2018-08-25T04:13:32.483Z,19.20
2018-08-25T04:14:32.442Z,19.20
2018-08-25T04:15:32.415Z,17.90
2018-08-25T04:16:32.377Z,17.10
2018-08-25T04:17:32.434Z,18.50
2018-08-25T04:18:32.322Z,18.00
2018-08-25T04:19:32.271Z,18.10
2018-08-25T04:20:32.242Z,17.60
2018-08-25T04:21:32.212Z,18.90
2018-08-25T04:22:32.220Z,19.10
2018-08-25T04:23:32.144Z,18.40
2018-08-25T04:24:32.101Z,18.50
2018-08-25T04:25:32.073Z,19.30
2018-08-25T04:26:32.016Z,18.20
2018-08-25T04:27:32.001Z,18.80
2018-08-25T04:28:31.962Z,20.70
2018-08-25T04:29:31.935Z,20.50
2018-08-25T04:30:31.897Z,18.70
2018-08-25T04:31:31.858Z,18.60
2018-08-25T04:32:31.826Z,19.00
2018-08-25T04:33:31.891Z,20.30
2018-08-25T04:34:31.748Z,18.80
2018-08-25T04:35:31.696Z,19.80
2018-08-25T04:36:31.685Z,19.90
2018-08-25T04:37:31.649Z,17.80
2018-08-25T04:38:31.593Z,18.90
2018-08-25T04:39:31.574Z,18.80
2018-08-25T04:40:31.517Z,19.60
2018-08-25T04:41:31.504Z,20.20
2018-08-25T04:42:31.448Z,20.30
2018-08-25T04:43:31.433Z,19.20
2018-08-25T04:44:31.377Z,20.20
2018-08-25T04:45:31.368Z,19.20
2018-08-25T04:46:31.341Z,18.50
2018-08-25T04:47:31.307Z,18.30
2018-08-25T04:48:31.272Z,18.40
2018-08-25T04:49:31.195Z,17.80
2018-08-25T04:50:31.166Z,18.00
2018-08-25T04:51:31.152Z,18.20
2018-08-25T04:52:31.095Z,17.00
2018-08-25T04:53:31.058Z,16.30
2018-08-25T04:54:31.013Z,17.00
2018-08-25T04:55:31.040Z,17.60
2018-08-25T04:56:30.947Z,18.60
2018-08-25T04:57:30.916Z,18.80
2018-08-25T04:58:30.880Z,18.50
2018-08-25T04:59:30.838Z,18.30
2018-08-25T05:00:30.821Z,18.60
2018-08-25T05:01:30.783Z,18.50
2018-08-25T05:02:30.731Z,18.80
2018-08-25T05:03:30.698Z,19.10
2018-08-25T05:04:30.666Z,19.80
2018-08-25T05:05:30.619Z,17.80
2018-08-25T05:06:30.616Z,18.10
2018-08-25T05:07:30.674Z,20.90
2018-08-25T05:08:30.531Z,19.10
2018-08-25T05:09:30.505Z,19.20
2018-08-25T05:10:30.544Z,20.00
2018-08-25T05:11:30.438Z,19.10
2018-08-25T05:12:30.380Z,19.10
2018-08-25T05:13:30.366Z,19.80
2018-08-25T05:14:30.305Z,19.20
2018-08-25T05:15:30.340Z,18.50
2018-08-25T05:16:30.327Z,17.30
2018-08-25T05:17:30.210Z,17.90
2018-08-25T05:18:30.222Z,18.10
2018-08-25T05:19:30.155Z,17.90
2018-08-25T05:20:30.087Z,18.00
2018-08-25T05:21:30.080Z,18.40
2018-08-25T05:22:30.056Z,18.70
2018-08-25T05:23:30.005Z,19.60
2018-08-25T05:24:29.960Z,18.40
2018-08-25T05:25:29.900Z,17.40
2018-08-25T05:26:29.882Z,18.20
2018-08-25T05:27:29.867Z,17.40
2018-08-25T05:28:29.818Z,16.50
2018-08-25T05:29:29.772Z,15.40
2018-08-25T05:30:29.743Z,17.30
2018-08-25T05:31:29.703Z,15.80
2018-08-25T05:32:29.661Z,15.90
2018-08-25T05:33:29.631Z,16.60
2018-08-25T05:34:29.616Z,15.10
2018-08-25T05:35:29.577Z,15.20
2018-08-25T05:36:29.569Z,15.10
2018-08-25T05:37:29.495Z,15.20
2018-08-25T05:38:29.454Z,14.50
2018-08-25T05:39:29.449Z,15.50
2018-08-25T05:40:29.423Z,14.30
2018-08-25T05:41:29.359Z,15.30
2018-08-25T05:42:29.336Z,16.00
2018-08-25T05:43:29.323Z,15.50
2018-08-25T05:44:29.250Z,15.40
2018-08-25T05:45:29.238Z,15.30
2018-08-25T05:46:29.183Z,15.50
2018-08-25T05:47:29.169Z,15.70
2018-08-25T05:48:29.114Z,16.20
2018-08-25T05:49:29.079Z,15.60
2018-08-25T05:50:29.035Z,15.40
2018-08-25T05:51:29.010Z,16.30
2018-08-25T05:52:28.966Z,14.60
2018-08-25T05:53:28.936Z,14.20
2018-08-25T05:54:28.908Z,14.20
2018-08-25T05:55:28.857Z,14.80
2018-08-25T05:56:28.846Z,14.70
2018-08-25T05:57:28.810Z,14.00
2018-08-25T05:58:28.774Z,14.50
2018-08-25T05:59:28.725Z,14.20
2018-08-25T06:00:28.718Z,14.50
2018-08-25T06:01:28.666Z,13.80
2018-08-25T06:02:28.738Z,13.50
2018-08-25T06:03:28.595Z,13.40
2018-08-25T06:04:28.568Z,13.40
2018-08-25T06:05:28.538Z,12.70
2018-08-25T06:06:28.517Z,13.30
2018-08-25T06:07:28.460Z,13.20
2018-08-25T06:08:28.425Z,13.20
2018-08-25T06:09:28.435Z,12.90
2018-08-25T06:10:28.362Z,12.90
2018-08-25T06:11:28.342Z,13.40
2018-08-25T06:12:28.297Z,12.70
2018-08-25T06:13:28.355Z,11.30
2018-08-25T06:14:28.227Z,11.50
2018-08-25T06:15:28.188Z,11.50
2018-08-25T06:16:28.136Z,11.20
2018-08-25T06:17:28.157Z,10.80
2018-08-25T06:18:28.096Z,11.00
2018-08-25T06:19:28.048Z,10.60
2018-08-25T06:20:28.034Z,10.20
2018-08-25T06:21:28.056Z,11.20
2018-08-25T06:22:27.962Z,11.30
2018-08-25T06:23:27.919Z,12.50
2018-08-25T06:24:27.880Z,11.90
2018-08-25T06:25:27.842Z,11.60
2018-08-25T06:26:27.820Z,10.90
2018-08-25T06:27:27.776Z,11.40
2018-08-25T06:28:27.765Z,11.70
2018-08-25T06:29:27.712Z,11.50
2018-08-25T06:30:27.663Z,11.60
2018-08-25T06:31:27.694Z,11.70
2018-08-25T06:32:27.604Z,12.50
2018-08-25T06:33:27.716Z,11.10
2018-08-25T06:34:27.567Z,10.60
2018-08-25T06:35:27.720Z,11.30
2018-08-25T06:36:27.494Z,10.80
2018-08-25T06:37:27.455Z,10.30
2018-08-25T06:38:27.482Z,11.20
2018-08-25T06:39:27.404Z,10.40
2018-08-25T06:40:27.348Z,10.60
2018-08-25T06:41:27.315Z,10.80
2018-08-25T06:42:27.337Z,10.70
2018-08-25T06:43:27.272Z,10.70
2018-08-25T06:44:27.245Z,10.50
2018-08-25T06:45:27.217Z,10.20
2018-08-25T06:46:27.151Z,9.20
2018-08-25T06:47:27.120Z,10.20
2018-08-25T06:48:27.099Z,9.20
2018-08-25T06:49:27.041Z,9.80
2018-08-25T06:50:27.051Z,10.20
2018-08-25T06:51:26.984Z,9.30
2018-08-25T06:52:26.957Z,9.60
2018-08-25T06:53:26.989Z,8.90
2018-08-25T06:54:26.869Z,9.30
2018-08-25T06:55:26.849Z,8.90
2018-08-25T06:56:26.804Z,8.50
2018-08-25T06:57:26.783Z,8.30
2018-08-25T06:58:26.751Z,9.30
2018-08-25T06:59:26.717Z,9.60
2018-08-25T07:00:26.676Z,9.50
2018-08-25T07:01:26.654Z,8.90
2018-08-25T07:02:26.614Z,7.70
2018-08-25T07:03:26.619Z,8.00
2018-08-25T07:04:26.565Z,8.30
2018-08-25T07:05:26.619Z,8.40
2018-08-25T07:06:26.491Z,8.40
2018-08-25T07:07:26.496Z,8.00
2018-08-25T07:08:26.417Z,7.80
2018-08-25T07:09:26.432Z,8.10
2018-08-25T07:10:26.347Z,8.30
2018-08-25T07:11:26.323Z,8.80
2018-08-25T07:12:26.285Z,7.50
2018-08-25T07:13:26.350Z,7.30
2018-08-25T07:14:26.240Z,7.80
2018-08-25T07:15:26.270Z,7.90
2018-08-25T07:16:26.155Z,8.00
2018-08-25T07:17:26.153Z,8.40
2018-08-25T07:18:26.084Z,7.70
2018-08-25T07:19:26.094Z,8.60
2018-08-25T07:20:26.121Z,8.40
2018-08-25T07:21:26.020Z,8.30
2018-08-25T07:22:25.982Z,7.40
2018-08-25T07:23:26.040Z,7.90
2018-08-25T07:24:25.908Z,8.30
2018-08-25T07:25:25.904Z,7.80
2018-08-25T07:26:25.866Z,8.00
2018-08-25T07:27:25.844Z,7.20
2018-08-25T07:28:25.775Z,7.60
2018-08-25T07:29:25.767Z,7.80
2018-08-25T07:30:25.724Z,7.50
2018-08-25T07:31:25.687Z,7.40
2018-08-25T07:32:25.648Z,8.00
2018-08-25T07:33:25.633Z,7.40
2018-08-25T07:34:25.597Z,6.80
2018-08-25T07:35:25.573Z,6.50
2018-08-25T07:36:25.573Z,7.10
2018-08-25T07:37:25.525Z,6.20
2018-08-25T07:38:25.642Z,6.10
2018-08-25T07:39:25.515Z,6.20
2018-08-25T07:40:25.465Z,5.60
2018-08-25T07:41:25.391Z,5.70
2018-08-25T07:42:25.361Z,5.90
2018-08-25T07:43:25.332Z,5.00
2018-08-25T07:44:25.304Z,4.90
2018-08-25T07:45:25.391Z,4.60
2018-08-25T07:46:25.333Z,4.20
2018-08-25T07:47:25.229Z,4.20
2018-08-25T07:48:25.221Z,4.20
2018-08-25T07:49:25.235Z,4.30
2018-08-25T07:50:25.166Z,4.00
2018-08-25T07:51:25.190Z,4.00
2018-08-25T07:52:25.133Z,3.90
2018-08-25T07:53:25.099Z,3.90
2018-08-25T07:54:25.062Z,4.00
2018-08-25T07:55:25.034Z,3.60
2018-08-25T07:56:25.001Z,3.60
2018-08-25T07:57:25.017Z,3.40
2018-08-25T07:58:25.044Z,3.20
2018-08-25T07:59:24.935Z,3.50
2018-08-25T08:00:24.928Z,3.60
2018-08-25T08:01:24.916Z,3.50
2018-08-25T08:02:24.836Z,3.30
2018-08-25T08:03:24.823Z,2.90
2018-08-25T08:04:24.795Z,3.30
2018-08-25T08:05:24.789Z,2.90
2018-08-25T08:06:24.764Z,3.80
2018-08-25T08:07:24.739Z,3.20
2018-08-25T08:08:24.709Z,3.10
2018-08-25T08:09:24.674Z,3.20
2018-08-25T08:10:24.633Z,3.20
2018-08-25T08:11:24.642Z,3.60
2018-08-25T08:12:24.601Z,3.30
2018-08-25T08:13:24.562Z,3.20
2018-08-25T08:14:24.544Z,3.10
2018-08-25T08:15:24.514Z,3.30
2018-08-25T08:16:24.590Z,3.40
2018-08-25T08:17:24.446Z,3.70
2018-08-25T08:18:24.424Z,3.00
2018-08-25T08:19:24.549Z,3.00
2018-08-25T08:20:24.374Z,2.70
2018-08-25T08:21:24.336Z,3.00
2018-08-25T08:22:24.415Z,3.30
2018-08-25T08:23:24.296Z,3.20
2018-08-25T08:24:24.264Z,3.10
2018-08-25T08:25:24.231Z,3.30
2018-08-25T08:26:24.204Z,3.20
2018-08-25T08:27:24.207Z,3.20
2018-08-25T08:28:24.150Z,3.30
2018-08-25T08:29:24.147Z,3.40
2018-08-25T08:30:24.098Z,2.70
2018-08-25T08:31:24.069Z,3.00
2018-08-25T08:32:24.052Z,2.90
2018-08-25T08:33:24.003Z,3.30
2018-08-25T08:34:23.985Z,3.10
2018-08-25T08:35:23.965Z,3.10
2018-08-25T08:36:23.930Z,3.30
2018-08-25T08:37:23.933Z,3.30
2018-08-25T08:38:23.889Z,3.30
2018-08-25T08:39:23.894Z,3.10
2018-08-25T08:40:23.827Z,3.30
2018-08-25T08:41:23.856Z,2.90
2018-08-25T08:42:23.799Z,3.30
2018-08-25T08:43:23.754Z,3.20
2018-08-25T08:44:23.711Z,3.20
2018-08-25T08:45:23.695Z,3.40
2018-08-25T08:46:23.678Z,3.10
2018-08-25T08:47:23.657Z,2.70
2018-08-25T08:48:23.632Z,3.20
2018-08-25T08:49:23.576Z,3.40
2018-08-25T08:50:23.612Z,3.20
2018-08-25T08:51:23.520Z,3.20
2018-08-25T08:52:23.527Z,3.40
2018-08-25T08:53:23.509Z,3.00
2018-08-25T08:54:23.446Z,3.20
2018-08-25T08:55:23.419Z,2.70
2018-08-25T08:56:23.389Z,3.40
2018-08-25T08:57:23.367Z,3.40
2018-08-25T08:58:23.443Z,3.40
2018-08-25T08:59:23.382Z,3.10
2018-08-25T09:00:23.280Z,3.10
2018-08-25T09:01:23.264Z,3.30
2018-08-25T09:02:23.250Z,3.30
2018-08-25T09:03:23.212Z,2.90
2018-08-25T09:04:23.186Z,2.90
2018-08-25T09:05:23.145Z,3.10
2018-08-25T09:06:23.104Z,3.80
2018-08-25T09:07:23.084Z,5.80
2018-08-25T09:08:23.050Z,6.90
2018-08-25T09:09:23.027Z,3.20
2018-08-25T09:10:23.005Z,3.40
2018-08-25T09:11:22.996Z,3.30
2018-08-25T09:12:22.937Z,3.90
2018-08-25T09:13:22.911Z,3.40
2018-08-25T09:14:22.895Z,3.70
2018-08-25T09:15:22.849Z,3.10
2018-08-25T09:16:22.820Z,3.00
2018-08-25T09:17:22.791Z,3.30
2018-08-25T09:18:22.766Z,3.10
2018-08-25T09:19:22.782Z,2.90
2018-08-25T09:20:22.745Z,3.10
2018-08-25T09:21:22.687Z,3.30
2018-08-25T09:22:22.652Z,3.40
2018-08-25T09:23:22.633Z,3.20
2018-08-25T09:24:22.605Z,3.10
2018-08-25T09:25:22.574Z,3.10
2018-08-25T09:26:22.553Z,2.90
2018-08-25T09:27:22.557Z,3.40
2018-08-25T09:28:22.486Z,3.00
2018-08-25T09:29:22.447Z,3.40
2018-08-25T09:30:22.424Z,2.80
2018-08-25T09:31:22.399Z,3.10
2018-08-25T09:32:22.351Z,3.50
2018-08-25T09:33:22.428Z,3.30
2018-08-25T09:34:22.317Z,2.90
2018-08-25T09:35:22.284Z,2.90
2018-08-25T09:36:22.360Z,3.30
2018-08-25T09:37:22.216Z,3.30
2018-08-25T09:38:22.186Z,3.20
2018-08-25T09:39:22.181Z,2.80
2018-08-25T09:40:22.132Z,3.00
2018-08-25T09:41:22.098Z,3.10
2018-08-25T09:42:22.096Z,2.80
2018-08-25T09:43:22.046Z,3.00
2018-08-25T09:44:22.034Z,3.40
2018-08-25T09:45:22.004Z,3.10
2018-08-25T09:46:21.938Z,3.20
2018-08-25T09:47:21.899Z,3.60
2018-08-25T09:48:21.895Z,2.70
2018-08-25T09:49:21.857Z,3.10
2018-08-25T09:50:21.821Z,3.10
2018-08-25T09:51:21.787Z,3.00
2018-08-25T09:52:21.779Z,3.00
2018-08-25T09:53:21.795Z,3.20
2018-08-25T09:54:21.701Z,3.40
2018-08-25T09:55:21.677Z,2.80
2018-08-25T09:56:21.650Z,3.00
2018-08-25T09:57:21.606Z,2.90
2018-08-25T09:58:21.582Z,2.70
2018-08-25T09:59:21.577Z,2.80
2018-08-25T10:00:21.520Z,2.90
2018-08-25T10:01:21.490Z,2.80
2018-08-25T10:02:21.450Z,2.90
2018-08-25T10:03:21.457Z,2.90
2018-08-25T10:04:21.408Z,2.70
2018-08-25T10:05:21.540Z,3.30
2018-08-25T10:06:21.334Z,2.80
2018-08-25T10:07:21.303Z,2.80
2018-08-25T10:08:21.270Z,2.60
2018-08-25T10:09:21.277Z,2.80
2018-08-25T10:10:21.212Z,2.70
2018-08-25T10:11:21.175Z,2.60
2018-08-25T10:12:21.176Z,2.10
2018-08-25T10:13:21.128Z,2.50
2018-08-25T10:14:21.091Z,2.50
2018-08-25T10:15:21.041Z,2.70
2018-08-25T10:16:21.058Z,2.50
2018-08-25T10:17:20.994Z,2.50
2018-08-25T10:18:20.956Z,2.70
2018-08-25T10:19:20.934Z,2.20
2018-08-25T10:20:20.901Z,2.30
2018-08-25T10:21:20.871Z,2.30
2018-08-25T10:22:20.833Z,2.50
2018-08-25T10:23:20.802Z,2.90
2018-08-25T10:24:20.771Z,2.60
2018-08-25T10:25:20.740Z,2.40
2018-08-25T10:26:20.703Z,2.30
2018-08-25T10:27:20.666Z,2.50
2018-08-25T10:28:20.656Z,2.50
2018-08-25T10:29:20.606Z,2.60
2018-08-25T10:30:20.599Z,2.20
2018-08-25T10:31:20.559Z,2.10
2018-08-25T10:32:20.498Z,2.20
2018-08-25T10:33:20.483Z,2.30
2018-08-25T10:34:20.440Z,2.20
2018-08-25T10:35:20.419Z,2.30
2018-08-25T10:36:20.422Z,2.40
2018-08-25T10:37:20.355Z,2.20
2018-08-25T10:38:20.348Z,2.40
2018-08-25T10:39:20.316Z,2.30
2018-08-25T10:40:20.252Z,2.20
2018-08-25T10:41:20.263Z,1.90
2018-08-25T10:42:20.187Z,2.40
2018-08-25T10:43:20.164Z,2.10
2018-08-25T10:44:20.129Z,2.30
2018-08-25T10:45:20.095Z,2.20
2018-08-25T10:46:20.085Z,2.20
2018-08-25T10:47:20.091Z,1.90
2018-08-25T10:48:20.001Z,2.00
2018-08-25T10:49:19.975Z,2.00
2018-08-25T10:50:19.974Z,2.00
2018-08-25T10:51:19.916Z,2.10
2018-08-25T10:52:19.880Z,1.90
2018-08-25T10:53:19.867Z,2.20
2018-08-25T10:54:19.820Z,2.20
2018-08-25T10:55:19.814Z,2.30
2018-08-25T10:56:19.742Z,2.20
2018-08-25T10:57:19.714Z,2.40
2018-08-25T10:58:19.691Z,2.20
2018-08-25T10:59:19.646Z,2.00
2018-08-25T11:00:19.804Z,2.30
2018-08-25T11:01:19.607Z,2.20
2018-08-25T11:02:19.562Z,2.20
2018-08-25T11:03:19.517Z,1.90
2018-08-25T11:04:19.490Z,2.30
2018-08-25T11:05:19.453Z,1.90
2018-08-25T11:06:19.415Z,2.10
2018-08-25T11:07:19.385Z,2.00
2018-08-25T11:08:19.369Z,2.20
2018-08-25T11:09:19.340Z,2.90
2018-08-25T11:10:19.301Z,1.90
2018-08-25T11:11:19.330Z,2.60
2018-08-25T11:12:19.240Z,2.40
2018-08-25T11:13:19.222Z,2.00
2018-08-25T11:14:19.151Z,2.00
2018-08-25T11:15:19.126Z,2.10
2018-08-25T11:16:19.139Z,2.00
2018-08-25T11:17:19.074Z,1.90
2018-08-25T11:18:19.041Z,2.70
2018-08-25T11:19:19.018Z,2.30
2018-08-25T11:20:18.976Z,1.90
2018-08-25T11:21:18.954Z,2.10
2018-08-25T11:22:18.999Z,1.90
2018-08-25T11:23:18.902Z,2.00
2018-08-25T11:24:18.882Z,2.10
2018-08-25T11:25:18.817Z,2.30
2018-08-25T11:26:18.824Z,2.60
2018-08-25T11:27:18.761Z,2.10
2018-08-25T11:28:18.725Z,3.20
2018-08-25T11:29:18.780Z,1.90
2018-08-25T11:30:18.652Z,1.80
2018-08-25T11:31:18.617Z,2.00
2018-08-25T11:32:18.580Z,2.10
2018-08-25T11:33:18.550Z,2.10
2018-08-25T11:34:18.527Z,2.30
2018-08-25T11:35:18.607Z,1.80
2018-08-25T11:36:18.510Z,2.10
2018-08-25T11:37:18.510Z,1.90
2018-08-25T11:38:18.421Z,1.80
2018-08-25T11:39:18.368Z,2.10
2018-08-25T11:40:18.333Z,1.80
2018-08-25T11:41:18.309Z,2.00
2018-08-25T11:42:18.296Z,1.90
2018-08-25T11:43:18.240Z,2.00
2018-08-25T11:44:18.210Z,1.90
2018-08-25T11:45:18.173Z,2.30
2018-08-25T11:46:18.142Z,1.60
2018-08-25T11:47:18.094Z,1.60
2018-08-25T11:48:18.070Z,2.10
2018-08-25T11:49:18.054Z,1.90
2018-08-25T11:50:18.041Z,2.00
2018-08-25T11:51:18.169Z,2.10
2018-08-25T11:52:18.012Z,1.60
2018-08-25T11:53:17.924Z,1.90
2018-08-25T11:54:17.896Z,1.80
2018-08-25T11:55:17.854Z,1.80
2018-08-25T11:56:17.841Z,1.80
2018-08-25T11:57:17.817Z,1.60
2018-08-25T11:58:17.781Z,1.60
2018-08-25T11:59:17.740Z,1.50
2018-08-25T12:00:17.712Z,1.50
2018-08-25T12:01:17.673Z,1.60
2018-08-25T12:02:17.685Z,1.60
2018-08-25T12:03:17.625Z,1.60
2018-08-25T12:04:17.584Z,1.50
2018-08-25T12:05:17.555Z,1.60
2018-08-25T12:06:17.521Z,1.60
2018-08-25T12:07:17.471Z,1.30
2018-08-25T12:08:17.563Z,1.50
2018-08-25T12:09:17.651Z,1.30
2018-08-25T12:10:17.401Z,1.50
2018-08-25T12:11:17.422Z,1.60
2018-08-25T12:12:17.337Z,1.50
2018-08-25T12:13:17.421Z,1.30
2018-08-25T12:14:17.330Z,1.40
2018-08-25T12:15:17.259Z,1.40
2018-08-25T12:16:17.286Z,1.70
2018-08-25T12:17:17.208Z,1.30
2018-08-25T12:18:17.126Z,1.30
2018-08-25T12:19:17.102Z,1.40
2018-08-25T12:20:17.072Z,1.40
2018-08-25T12:21:17.051Z,1.30
2018-08-25T12:22:17.095Z,1.40
2018-08-25T12:23:17.002Z,1.40
2018-08-25T12:24:16.948Z,1.50
2018-08-25T12:25:16.920Z,1.60
2018-08-25T12:26:16.885Z,1.50
2018-08-25T12:27:16.851Z,1.40
2018-08-25T12:28:16.866Z,1.40
2018-08-25T12:29:16.791Z,1.30
2018-08-25T12:30:16.773Z,1.30
2018-08-25T12:31:16.734Z,1.20
2018-08-25T12:32:16.714Z,1.40
2018-08-25T12:33:16.685Z,1.30
2018-08-25T12:34:16.630Z,1.30
2018-08-25T12:35:16.609Z,1.50
2018-08-25T12:36:16.606Z,1.60
2018-08-25T12:37:16.550Z,1.70
2018-08-25T12:38:16.522Z,1.50
2018-08-25T12:39:16.530Z,1.40
2018-08-25T12:40:16.458Z,1.40
2018-08-25T12:41:17.132Z,1.30
2018-08-25T12:42:16.394Z,1.20
2018-08-25T12:43:16.460Z,1.20
2018-08-25T12:44:16.353Z,1.60
2018-08-25T12:45:16.311Z,1.60
2018-08-25T12:46:16.288Z,1.40
2018-08-25T12:47:16.235Z,1.50
2018-08-25T12:48:16.208Z,1.30
2018-08-25T12:49:16.183Z,1.50
2018-08-25T12:50:16.267Z,1.50
2018-08-25T12:51:16.129Z,1.10
2018-08-25T12:52:16.106Z,1.30
2018-08-25T12:53:16.083Z,1.30
2018-08-25T12:54:16.033Z,1.50
2018-08-25T12:55:16.081Z,1.30
2018-08-25T12:56:15.979Z,1.60
2018-08-25T12:57:15.946Z,1.30
2018-08-25T12:58:15.899Z,1.60
2018-08-25T12:59:15.996Z,1.40
2018-08-25T13:00:15.842Z,1.60
2018-08-25T13:01:15.811Z,1.30
2018-08-25T13:02:15.790Z,1.50
2018-08-25T13:03:15.762Z,1.30
2018-08-25T13:04:15.743Z,1.60